Terminal Aerodrome Forecast
Issued by NWS Corpus Christi, TX

Home | Current Version | Previous Version | Text Only | Print | Product List | Glossary On
Versions: 1 2 3 4 5 6 7 8 9 10 11 12 13 14 15 16
089
FTUS44 KCRP 201342 AAA
TAFVCT
TAF AMD
KVCT 201342Z 2014/2112 05011KT P6SM -RA OVC080
     FM201500 33008KT P6SM VCSH BKN050
     FM201800 23006KT P6SM SCT050
     FM210100 23005KT P6SM FEW100=

USA.gov is the U.S. government's official web portal to all federal, state and local government web resources and services.